Overview Statistics Trail Chart Weather Telemetry Raw packets
 

This is the latest recevied weather packets stored in our database for station/object DL6DJ-15. If no packets are shown the sender has not sent any weather packets the latest 10 day(s).

<< 1 2 3 4 5 6 >>
Time Temp. Humidity Pressure Rain* Wind** Luminosity Snow
1788605069 23.33° C 54% 1023.9 hPa - - - -
1788604769 23.33° C 58% 1023.8 hPa - - - -
1788604469 22.22° C 61% 1023.7 hPa - - - -
1788604168 21.67° C 65% 1023.7 hPa - - - -
1788603868 21.11° C 65% 1023.9 hPa - - - -
1788603567 21.67° C 62% 1023.8 hPa - - - -
1788603267 21.67° C 63% 1023.9 hPa - - - -
1788602966 20.56° C 68% 1023.8 hPa - - - -
1788602666 20.56° C 67% 1023.9 hPa - - - -
1788602365 20.56° C 65% 1023.9 hPa - - - -
1788602065 21.67° C 62% 1023.8 hPa - - - -
1788601765 22.22° C 62% 1023.8 hPa - - - -
1788601464 22.22° C 61% 1023.7 hPa - - - -
1788601164 21.11° C 67% 1023.8 hPa - - - -
1788600863 20.56° C 67% 1023.8 hPa - - - -
1788600563 19.44° C 70% 1023.8 hPa - - - -
1788600263 19.44° C 70% 1023.9 hPa - - - -
1788599962 20° C 68% 1023.9 hPa - - - -
1788599662 20° C 68% 1023.8 hPa - - - -
1788599361 20° C 66% 1023.9 hPa - - - -
1788599061 20.56° C 64% 1023.9 hPa - - - -
1788598760 20.56° C 64% 1023.8 hPa - - - -
1788598460 20° C 66% 1023.7 hPa - - - -
1788598160 20° C 64% 1023.8 hPa - - - -
1788597859 21.67° C 61% 1023.8 hPa - - - -

* Rain since midnight (hover to see other rain measurements)
** Current wind speed in m/s (hover to see current wind gust speed)